Time;durP1;ratioP1;P1;durP2;ratioP2;P2;SDS_P1;SDS_P2;PMS_P1;PMS_P2;Temp;Humidity;BMP_temperature;BMP_pressure;BME280_temperature;BME280_humidity;BME280_pressure;Samples;Min_cycle;Max_cycle;Signal;HPM_P1;HPM_P2
2023/10/29 00:01:03;;;;;;;16.30;7.13;;;16.80;99.90;;;;;;5163146;28;20035;-75
2023/10/29 00:03:34;;;;;;;13.50;6.75;;;16.80;99.90;;;;;;5163398;28;20050;-74
2023/10/29 00:06:05;;;;;;;16.33;7.30;;;16.80;99.90;;;;;;5147131;28;20030;-75
2023/10/29 00:08:36;;;;;;;9.50;6.72;;;16.90;99.90;;;;;;5164368;28;20453;-74
2023/10/29 00:11:11;;;;;;;11.88;6.63;;;16.90;99.90;;;;;;5164056;28;20042;-74
2023/10/29 00:13:41;;;;;;;12.60;7.20;;;16.80;99.90;;;;;;5164506;28;20080;-75
2023/10/29 00:16:13;;;;;;;7.90;6.93;;;16.80;99.90;;;;;;5164061;28;20030;-74
2023/10/29 00:18:43;;;;;;;13.57;7.22;;;16.70;99.90;;;;;;5164034;28;20019;-75
2023/10/29 00:21:15;;;;;;;12.38;7.15;;;16.80;99.90;;;;;;5146543;28;20406;-74
2023/10/29 00:23:46;;;;;;;9.45;6.80;;;16.70;99.90;;;;;;5146561;28;20026;-72
2023/10/29 00:26:17;;;;;;;9.05;6.95;;;16.80;99.90;;;;;;5164032;28;20045;-75
2023/10/29 00:28:48;;;;;;;14.40;6.60;;;16.80;99.90;;;;;;5164007;28;20505;-74
2023/10/29 00:31:19;;;;;;;11.63;6.82;;;16.70;99.90;;;;;;5163919;28;20042;-74
2023/10/29 00:33:50;;;;;;;10.52;6.30;;;16.60;99.90;;;;;;5163958;28;20023;-75
2023/10/29 00:36:21;;;;;;;11.93;6.40;;;16.70;99.90;;;;;;5163971;28;20437;-74
2023/10/29 00:38:52;;;;;;;11.07;6.68;;;16.70;99.90;;;;;;5163945;28;20023;-75
2023/10/29 00:41:23;;;;;;;10.85;6.72;;;16.60;99.90;;;;;;5163461;28;20027;-74
2023/10/29 00:43:54;;;;;;;11.70;6.28;;;16.50;99.90;;;;;;5163910;28;20467;-72
2023/10/29 00:46:25;;;;;;;11.13;6.57;;;16.60;99.90;;;;;;5162713;28;20034;-75
2023/10/29 00:48:57;;;;;;;12.02;6.72;;;16.60;99.90;;;;;;5162617;28;20062;-74
2023/10/29 00:51:28;;;;;;;9.57;6.07;;;16.70;99.90;;;;;;5162716;28;20047;-75
2023/10/29 00:54:00;;;;;;;13.43;6.78;;;16.60;99.90;;;;;;5162758;28;20022;-74
2023/10/29 00:56:31;;;;;;;12.15;6.65;;;16.60;99.90;;;;;;5162703;28;20054;-75
2023/10/29 00:59:02;;;;;;;10.30;6.70;;;16.50;99.90;;;;;;5162585;28;20022;-74
2023/10/29 01:01:33;;;;;;;13.57;7.10;;;16.50;99.90;;;;;;5163944;28;20025;-74
2023/10/29 01:04:04;;;;;;;12.98;7.13;;;16.50;99.90;;;;;;5163830;28;20027;-74
2023/10/29 01:06:38;;;;;;;11.43;6.63;;;16.50;99.90;;;;;;5165420;28;20034;-74
2023/10/29 01:09:10;;;;;;;11.30;6.47;;;16.50;99.90;;;;;;5167513;28;20022;-73
2023/10/29 01:11:42;;;;;;;8.15;6.10;;;16.60;99.90;;;;;;5167369;28;20419;-74
2023/10/29 01:14:13;;;;;;;8.27;6.40;;;16.50;99.90;;;;;;5167743;28;20021;-72
2023/10/29 01:16:44;;;;;;;9.90;6.45;;;16.40;99.90;;;;;;5150261;28;20018;-73
2023/10/29 01:19:15;;;;;;;13.05;7.47;;;16.50;99.90;;;;;;5166841;28;20442;-74
2023/10/29 01:21:46;;;;;;;13.30;7.20;;;16.40;99.90;;;;;;5167424;28;20034;-74
2023/10/29 01:24:16;;;;;;;9.63;6.78;;;16.50;99.90;;;;;;5167249;28;20018;-74
2023/10/29 01:26:47;;;;;;;14.52;6.90;;;16.60;99.90;;;;;;5167159;28;20097;-75
2023/10/29 01:29:18;;;;;;;9.30;7.70;;;16.40;99.90;;;;;;5167181;28;20026;-75
2023/10/29 01:31:49;;;;;;;10.73;7.28;;;16.40;99.90;;;;;;5167251;28;20161;-74
2023/10/29 01:34:20;;;;;;;10.52;6.93;;;16.40;99.90;;;;;;5149693;28;20061;-75
2023/10/29 01:36:51;;;;;;;11.52;7.82;;;16.40;99.90;;;;;;5166381;28;20038;-75
2023/10/29 01:39:22;;;;;;;11.75;7.53;;;16.30;99.90;;;;;;5166490;28;20034;-74
2023/10/29 01:41:55;;;;;;;11.18;7.32;;;16.30;99.90;;;;;;5165632;28;20426;-72
2023/10/29 01:44:27;;;;;;;17.35;7.32;;;16.30;99.90;;;;;;5165469;28;20023;-74
2023/10/29 01:46:58;;;;;;;16.95;8.00;;;16.30;99.90;;;;;;5165427;28;20030;-75
2023/10/29 01:49:28;;;;;;;17.38;8.65;;;15.90;99.90;;;;;;5165053;28;20042;-75
2023/10/29 01:51:59;;;;;;;10.93;9.68;;;16.00;99.90;;;;;;5165206;28;20038;-74
2023/10/29 01:54:30;;;;;;;17.75;10.77;;;16.20;99.90;;;;;;5165148;28;20579;-74
2023/10/29 01:57:01;;;;;;;28.13;14.63;;;16.10;99.90;;;;;;5166104;28;20034;-74
2023/10/29 01:59:32;;;;;;;26.60;16.25;;;16.30;99.90;;;;;;5166236;28;20015;-75
2023/10/29 02:02:03;;;;;;;21.38;11.63;;;16.20;99.90;;;;;;5166283;28;20496;-75
2023/10/29 02:04:34;;;;;;;24.15;12.73;;;16.30;99.90;;;;;;5148830;28;20137;-74
2023/10/29 02:07:04;;;;;;;20.38;12.52;;;16.30;99.90;;;;;;5166117;28;20030;-74
2023/10/29 02:09:35;;;;;;;21.50;12.07;;;16.50;99.90;;;;;;5166039;28;20391;-74
2023/10/29 02:12:06;;;;;;;22.92;13.68;;;16.50;99.90;;;;;;5166087;28;20036;-74
2023/10/29 02:14:39;;;;;;;21.00;12.70;;;16.00;99.90;;;;;;5166095;28;20117;-74
2023/10/29 02:17:11;;;;;;;24.95;13.55;;;16.30;99.90;;;;;;5165458;28;20418;-74
2023/10/29 02:19:41;;;;;;;23.38;11.95;;;16.30;99.90;;;;;;5165624;28;20393;-75
2023/10/29 02:22:12;;;;;;;21.13;12.63;;;16.50;99.90;;;;;;5165859;28;20037;-72
2023/10/29 02:24:43;;;;;;;22.33;12.77;;;16.30;99.90;;;;;;5165860;28;20474;-75
2023/10/29 02:27:14;;;;;;;24.17;13.30;;;16.30;99.90;;;;;;5148383;28;20467;-75
2023/10/29 02:29:45;;;;;;;19.73;12.63;;;16.40;99.90;;;;;;5165750;28;20033;-75
2023/10/29 02:32:16;;;;;;;19.38;11.65;;;16.40;99.90;;;;;;5165599;28;20034;-73
2023/10/29 02:34:46;;;;;;;16.00;11.15;;;16.40;99.90;;;;;;5165109;28;20030;-75
2023/10/29 02:37:17;;;;;;;24.80;11.60;;;16.40;99.90;;;;;;5164905;28;20022;-75
2023/10/29 02:39:48;;;;;;;19.75;11.18;;;16.40;99.90;;;;;;5146997;28;20077;-74
2023/10/29 02:42:19;;;;;;;17.33;11.18;;;16.40;99.90;;;;;;5164296;28;20037;-75
2023/10/29 02:44:50;;;;;;;19.05;13.40;;;16.30;99.90;;;;;;5146814;28;20026;-74
2023/10/29 02:47:21;;;;;;;20.75;13.43;;;16.40;99.90;;;;;;5164103;28;20387;-74
2023/10/29 02:49:52;;;;;;;18.95;11.95;;;16.40;99.90;;;;;;5146765;28;20038;-74
2023/10/29 02:52:24;;;;;;;17.15;11.05;;;16.30;99.90;;;;;;5164799;28;20042;-75
2023/10/29 02:54:56;;;;;;;20.90;12.68;;;16.30;99.90;;;;;;5165283;28;20030;-74
2023/10/29 02:57:29;;;;;;;20.95;12.25;;;16.30;99.90;;;;;;5147680;28;20366;-74
2023/10/29 03:00:00;;;;;;;16.70;11.07;;;16.40;99.90;;;;;;5165309;28;20105;-74
2023/10/29 03:02:31;;;;;;;18.58;10.48;;;16.40;99.90;;;;;;5147587;28;20030;-74
2023/10/29 03:05:02;;;;;;;19.35;11.95;;;16.30;99.90;;;;;;5165112;28;20031;-74
2023/10/29 03:07:33;;;;;;;16.15;10.23;;;16.40;99.90;;;;;;5164952;28;20145;-74
2023/10/29 03:10:07;;;;;;;16.15;9.10;;;16.30;99.90;;;;;;5164931;28;20501;-74
2023/10/29 03:12:38;;;;;;;13.75;7.97;;;16.30;99.90;;;;;;5164902;28;20045;-74
2023/10/29 03:15:09;;;;;;;16.05;8.52;;;16.00;99.90;;;;;;5164967;28;20026;-74
2023/10/29 03:17:39;;;;;;;13.13;7.35;;;16.00;99.90;;;;;;5164885;28;20161;-74
2023/10/29 03:20:16;;;;;;;14.38;8.48;;;16.10;99.90;;;;;;5164290;28;20144;-75
2023/10/29 03:22:47;;;;;;;15.85;8.25;;;16.20;99.90;;;;;;5164940;28;20098;-74
2023/10/29 03:25:18;;;;;;;16.23;7.85;;;16.30;99.90;;;;;;5147383;28;20130;-75
2023/10/29 03:27:48;;;;;;;16.48;7.45;;;16.20;99.90;;;;;;5164514;28;20030;-75
2023/10/29 03:30:19;;;;;;;13.48;7.63;;;16.20;99.90;;;;;;5163425;28;20390;-74
2023/10/29 03:32:50;;;;;;;14.65;7.90;;;16.30;99.90;;;;;;5163573;28;20049;-74
2023/10/29 03:35:21;;;;;;;13.65;7.35;;;16.30;99.90;;;;;;5162987;28;20042;-75
2023/10/29 03:37:52;;;;;;;15.77;7.80;;;16.40;99.90;;;;;;5146137;28;20382;-74
2023/10/29 03:40:23;;;;;;;14.73;8.05;;;16.30;99.90;;;;;;5146147;28;20029;-74
2023/10/29 03:42:54;;;;;;;14.43;8.73;;;16.40;99.90;;;;;;5163878;28;20027;-74
2023/10/29 03:45:25;;;;;;;11.20;7.25;;;16.30;99.90;;;;;;5146044;28;20028;-74
2023/10/29 03:47:56;;;;;;;14.40;8.52;;;16.20;99.90;;;;;;5164328;28;20421;-74
2023/10/29 03:50:27;;;;;;;10.23;8.20;;;16.30;99.90;;;;;;5164460;28;20553;-74
2023/10/29 03:52:57;;;;;;;10.48;7.47;;;16.40;99.90;;;;;;5164712;28;20022;-75
2023/10/29 03:55:28;;;;;;;10.98;7.10;;;16.20;99.90;;;;;;5164881;28;20471;-71
2023/10/29 03:57:59;;;;;;;19.00;7.82;;;16.30;99.90;;;;;;5164677;28;20105;-75
2023/10/29 04:00:30;;;;;;;10.82;7.07;;;16.20;99.90;;;;;;5164299;28;20026;-74
2023/10/29 04:03:01;;;;;;;12.75;7.40;;;16.20;99.90;;;;;;5164467;28;20030;-74
2023/10/29 04:05:34;;;;;;;9.57;6.38;;;16.20;99.90;;;;;;5163934;28;20037;-74
2023/10/29 04:08:05;;;;;;;11.50;6.80;;;16.20;99.90;;;;;;5164186;28;20029;-74
2023/10/29 04:10:36;;;;;;;9.68;6.20;;;16.10;99.90;;;;;;5146518;28;20557;-75
2023/10/29 04:13:07;;;;;;;12.13;7.25;;;16.10;99.90;;;;;;5164284;28;20038;-74
2023/10/29 04:15:38;;;;;;;14.27;8.27;;;16.10;99.90;;;;;;5164027;28;20034;-74
2023/10/29 04:18:09;;;;;;;12.25;7.90;;;16.10;99.90;;;;;;5146378;28;20492;-74
2023/10/29 04:20:39;;;;;;;11.30;6.70;;;16.20;99.90;;;;;;5163806;28;20053;-75
2023/10/29 04:23:10;;;;;;;13.27;6.97;;;16.20;99.90;;;;;;5164203;28;20038;-75
2023/10/29 04:25:44;;;;;;;13.32;7.75;;;16.10;99.90;;;;;;5146171;28;20035;-74
2023/10/29 04:28:14;;;;;;;14.32;7.22;;;16.00;99.90;;;;;;5163300;28;20375;-74
2023/10/29 04:30:45;;;;;;;16.45;9.82;;;16.10;99.90;;;;;;5162710;28;20050;-74
2023/10/29 04:33:17;;;;;;;14.48;8.75;;;15.70;99.90;;;;;;5162830;28;20032;-74
2023/10/29 04:35:47;;;;;;;13.38;9.05;;;16.00;99.90;;;;;;5162649;28;20026;-75
2023/10/29 04:38:18;;;;;;;12.10;7.90;;;16.00;99.90;;;;;;5162777;28;20089;-75
2023/10/29 04:40:50;;;;;;;10.40;7.35;;;16.00;99.90;;;;;;5164983;28;20387;-75
2023/10/29 04:43:21;;;;;;;15.57;8.50;;;15.90;99.90;;;;;;5167165;28;20023;-74
2023/10/29 04:45:52;;;;;;;11.90;7.53;;;16.00;99.90;;;;;;5167631;28;20038;-74
2023/10/29 04:48:23;;;;;;;13.77;7.70;;;16.00;99.90;;;;;;5167613;28;20019;-74
2023/10/29 04:50:54;;;;;;;11.85;7.25;;;16.00;99.90;;;;;;5149899;28;20073;-72
2023/10/29 04:53:25;;;;;;;11.43;6.97;;;16.00;99.90;;;;;;5167960;28;20537;-71
2023/10/29 04:55:55;;;;;;;9.32;7.55;;;16.00;99.90;;;;;;5167708;28;20100;-73
2023/10/29 04:58:26;;;;;;;9.52;7.20;;;16.00;99.90;;;;;;5167709;28;20467;-74
2023/10/29 05:00:58;;;;;;;11.00;7.95;;;16.00;99.90;;;;;;5167836;28;20022;-71
2023/10/29 05:03:28;;;;;;;14.50;7.47;;;15.90;99.90;;;;;;5167420;28;20034;-71
2023/10/29 05:05:59;;;;;;;12.93;6.97;;;16.00;99.90;;;;;;5167155;28;20030;-72
2023/10/29 05:08:30;;;;;;;11.65;7.15;;;16.10;99.90;;;;;;5149810;28;20109;-73
2023/10/29 05:11:01;;;;;;;13.25;7.03;;;16.00;99.90;;;;;;5167221;28;20450;-74
2023/10/29 05:13:33;;;;;;;11.50;7.80;;;16.10;99.90;;;;;;5167269;28;20034;-74
2023/10/29 05:16:04;;;;;;;12.30;7.88;;;16.10;99.90;;;;;;5149579;28;20037;-73
2023/10/29 05:18:35;;;;;;;11.93;7.60;;;16.10;99.90;;;;;;5166973;28;20033;-73
2023/10/29 05:21:07;;;;;;;12.05;7.03;;;16.10;99.90;;;;;;5166095;28;20502;-73
2023/10/29 05:23:38;;;;;;;11.40;7.22;;;16.10;99.90;;;;;;5166644;28;20073;-73
2023/10/29 05:26:10;;;;;;;10.10;6.95;;;16.20;99.90;;;;;;5165683;28;20023;-73
2023/10/29 05:28:41;;;;;;;10.13;7.80;;;16.30;99.90;;;;;;5165817;28;20113;-74
2023/10/29 05:31:12;;;;;;;11.07;6.38;;;16.20;99.90;;;;;;5165768;28;20105;-73
2023/10/29 05:33:43;;;;;;;9.38;6.80;;;16.40;99.90;;;;;;5165748;28;20022;-74
2023/10/29 05:36:13;;;;;;;15.15;7.28;;;16.30;99.90;;;;;;5148242;28;20034;-75
2023/10/29 05:38:44;;;;;;;10.93;6.80;;;16.30;99.90;;;;;;5165988;28;20390;-73
2023/10/29 05:41:17;;;;;;;11.77;7.30;;;16.40;99.90;;;;;;5166633;28;20069;-74
2023/10/29 05:43:48;;;;;;;13.52;6.85;;;16.30;99.90;;;;;;5166199;28;20018;-72
2023/10/29 05:46:22;;;;;;;14.70;6.90;;;16.30;99.90;;;;;;5148245;28;20019;-74
2023/10/29 05:48:53;;;;;;;11.80;7.45;;;16.40;99.90;;;;;;5165687;28;20089;-71
2023/10/29 05:51:23;;;;;;;11.50;7.55;;;16.40;99.90;;;;;;5165821;28;20038;-71
2023/10/29 05:53:55;;;;;;;12.30;7.82;;;16.40;99.90;;;;;;5166403;28;20033;-71
2023/10/29 05:56:26;;;;;;;10.68;7.40;;;16.30;99.90;;;;;;5165839;28;20105;-74
2023/10/29 05:58:56;;;;;;;10.45;7.15;;;16.30;99.90;;;;;;5165596;28;20113;-73
2023/10/29 06:01:28;;;;;;;12.30;7.30;;;16.40;99.90;;;;;;5165288;28;20018;-72
2023/10/29 06:03:59;;;;;;;16.65;7.57;;;16.40;99.90;;;;;;5166537;28;20027;-72
2023/10/29 06:06:30;;;;;;;13.70;8.45;;;16.40;99.90;;;;;;5166352;28;20030;-71
2023/10/29 06:09:01;;;;;;;16.90;7.95;;;16.50;99.90;;;;;;5166309;28;20022;-73
2023/10/29 06:11:32;;;;;;;11.90;7.68;;;16.50;99.90;;;;;;5165877;28;20088;-72
2023/10/29 06:14:03;;;;;;;14.85;7.78;;;16.60;99.90;;;;;;5165561;28;20447;-72
2023/10/29 06:16:35;;;;;;;19.08;9.10;;;16.60;99.90;;;;;;5165227;28;20021;-74
2023/10/29 06:19:06;;;;;;;13.68;7.55;;;16.70;99.90;;;;;;5165638;28;20110;-74
2023/10/29 06:21:37;;;;;;;10.02;7.40;;;16.70;99.90;;;;;;5164730;28;20132;-74
2023/10/29 06:24:08;;;;;;;11.80;7.07;;;16.80;99.90;;;;;;5147323;28;20109;-73
2023/10/29 06:26:38;;;;;;;12.65;6.60;;;16.80;99.90;;;;;;5164523;28;20065;-73
2023/10/29 06:29:09;;;;;;;11.43;7.70;;;16.80;99.90;;;;;;5164502;28;20022;-73
2023/10/29 06:31:40;;;;;;;9.65;7.13;;;16.80;99.90;;;;;;5164526;28;20137;-74
2023/10/29 06:34:11;;;;;;;12.13;7.38;;;17.00;99.90;;;;;;5146872;28;20053;-73
2023/10/29 06:36:42;;;;;;;15.60;7.38;;;17.10;99.90;;;;;;5165573;28;20601;-73
2023/10/29 06:39:12;;;;;;;13.70;7.82;;;17.20;99.90;;;;;;5165645;28;20033;-73
2023/10/29 06:41:44;;;;;;;12.15;7.22;;;17.30;99.90;;;;;;5165532;28;20027;-72
2023/10/29 06:44:14;;;;;;;10.00;7.05;;;17.40;99.90;;;;;;5165568;28;20026;-72
2023/10/29 06:46:45;;;;;;;14.98;8.05;;;17.60;99.90;;;;;;5165571;28;20463;-73
2023/10/29 06:49:16;;;;;;;11.88;7.53;;;17.70;99.90;;;;;;5147665;28;20061;-74
2023/10/29 06:51:48;;;;;;;10.13;8.05;;;17.80;99.90;;;;;;5165261;28;20077;-73
2023/10/29 06:54:19;;;;;;;13.40;7.50;;;17.80;99.90;;;;;;5147899;28;20109;-71
2023/10/29 06:56:50;;;;;;;13.82;9.05;;;17.90;99.90;;;;;;5165196;28;20113;-71
2023/10/29 06:59:20;;;;;;;17.83;9.85;;;17.80;99.90;;;;;;5165232;28;20026;-74
2023/10/29 07:01:52;;;;;;;12.50;8.00;;;18.00;99.90;;;;;;5165194;28;20022;-73
2023/10/29 07:04:23;;;;;;;14.23;9.32;;;17.80;99.90;;;;;;5164988;28;20026;-73
2023/10/29 07:06:54;;;;;;;10.77;6.90;;;17.90;99.90;;;;;;5165020;28;20026;-73
2023/10/29 07:09:24;;;;;;;12.70;5.75;;;17.90;99.90;;;;;;5165135;28;20048;-72
2023/10/29 07:11:56;;;;;;;12.15;7.35;;;18.10;99.90;;;;;;5147038;28;20058;-74
2023/10/29 07:14:26;;;;;;;11.93;6.95;;;18.20;99.90;;;;;;5164737;28;20093;-72
2023/10/29 07:16:57;;;;;;;11.77;6.88;;;18.30;99.90;;;;;;5163726;28;20133;-74
2023/10/29 07:19:28;;;;;;;17.15;7.13;;;18.40;99.90;;;;;;5163597;28;20047;-74
2023/10/29 07:21:59;;;;;;;12.90;7.45;;;18.40;99.90;;;;;;5163785;28;20033;-74
2023/10/29 07:24:30;;;;;;;11.38;6.97;;;18.60;99.90;;;;;;5163524;28;20022;-74
2023/10/29 07:27:02;;;;;;;9.82;7.28;;;18.70;99.90;;;;;;5163579;28;20033;-74
2023/10/29 07:29:33;;;;;;;10.88;7.18;;;18.80;99.90;;;;;;5145935;28;20351;-72
2023/10/29 07:32:04;;;;;;;13.27;7.65;;;18.90;99.90;;;;;;5164240;28;20050;-74
2023/10/29 07:34:35;;;;;;;9.90;7.53;;;18.80;99.90;;;;;;5147272;28;20019;-73
2023/10/29 07:37:06;;;;;;;7.53;6.47;;;19.00;99.90;;;;;;5164605;28;20033;-74
2023/10/29 07:39:36;;;;;;;14.07;7.88;;;19.10;99.90;;;;;;5164493;28;20030;-73
2023/10/29 07:42:07;;;;;;;12.43;7.53;;;19.20;99.90;;;;;;5164417;28;20061;-74
2023/10/29 07:44:40;;;;;;;10.27;7.43;;;19.20;99.90;;;;;;5164385;28;20043;-74
2023/10/29 07:47:11;;;;;;;15.25;9.82;;;19.40;99.90;;;;;;5164278;28;20037;-74
2023/10/29 07:49:42;;;;;;;12.10;9.48;;;19.50;99.90;;;;;;5164248;28;20030;-72
2023/10/29 07:52:13;;;;;;;12.88;8.98;;;19.60;99.90;;;;;;5164368;28;20042;-71
2023/10/29 07:54:44;;;;;;;12.88;8.90;;;19.70;99.90;;;;;;5164435;28;20015;-71
2023/10/29 07:57:15;;;;;;;14.63;10.32;;;19.70;99.90;;;;;;5164255;28;20096;-74
2023/10/29 07:59:46;;;;;;;14.82;9.85;;;19.90;99.90;;;;;;5164171;28;20030;-74
2023/10/29 08:02:16;;;;;;;15.90;10.50;;;20.00;99.90;;;;;;5164226;28;20022;-71
2023/10/29 08:04:47;;;;;;;14.93;12.50;;;20.30;99.90;;;;;;5164156;28;20504;-72
2023/10/29 08:07:19;;;;;;;17.95;13.13;;;20.20;99.90;;;;;;5163679;28;20026;-74
2023/10/29 08:09:49;;;;;;;16.50;12.75;;;20.50;99.90;;;;;;5163632;28;20035;-74
2023/10/29 08:12:20;;;;;;;18.38;14.73;;;20.60;99.90;;;;;;5163248;28;20046;-74
2023/10/29 08:14:51;;;;;;;15.77;12.73;;;20.60;99.90;;;;;;5163786;28;20019;-73
2023/10/29 08:17:22;;;;;;;16.77;12.07;;;20.90;99.90;;;;;;5167305;28;20474;-71
2023/10/29 08:19:53;;;;;;;15.85;10.95;;;20.90;99.90;;;;;;5166868;28;20109;-74
2023/10/29 08:22:24;;;;;;;16.33;9.00;;;21.00;99.90;;;;;;5149590;28;20134;-74
2023/10/29 08:24:56;;;;;;;14.43;9.10;;;21.10;99.90;;;;;;5167308;28;20022;-72
2023/10/29 08:27:27;;;;;;;16.35;9.68;;;21.00;99.90;;;;;;5168230;28;20466;-71
2023/10/29 08:29:58;;;;;;;18.92;10.02;;;21.20;99.90;;;;;;5150651;28;20015;-72
2023/10/29 08:32:32;;;;;;;15.02;10.30;;;21.20;99.90;;;;;;5168103;28;20034;-71
2023/10/29 08:35:06;;;;;;;18.80;10.68;;;21.50;99.90;;;;;;5168138;28;20021;-72
2023/10/29 08:37:37;;;;;;;18.77;12.05;;;21.60;99.90;;;;;;5168154;28;20026;-72
2023/10/29 08:40:09;;;;;;;21.27;11.32;;;21.70;99.90;;;;;;5168142;28;20089;-71
2023/10/29 08:42:40;;;;;;;15.70;9.48;;;21.90;99.90;;;;;;5167781;28;20050;-72
2023/10/29 08:45:12;;;;;;;18.40;9.15;;;21.90;99.90;;;;;;5150205;28;20061;-72
2023/10/29 08:47:43;;;;;;;11.85;7.63;;;22.00;99.90;;;;;;5150373;28;20023;-72
2023/10/29 08:50:14;;;;;;;13.43;7.40;;;22.00;99.90;;;;;;5167444;28;20035;-71
2023/10/29 08:52:45;;;;;;;14.02;7.35;;;22.20;99.90;;;;;;5167670;28;20680;-72
2023/10/29 08:55:16;;;;;;;13.85;7.63;;;22.40;99.90;;;;;;5168021;28;20026;-73
2023/10/29 08:57:46;;;;;;;17.40;11.77;;;22.60;99.90;;;;;;5150401;28;20592;-72
2023/10/29 09:00:18;;;;;;;17.02;10.57;;;22.70;99.90;;;;;;5167729;28;20022;-74
2023/10/29 09:02:48;;;;;;;13.65;8.57;;;22.80;99.90;;;;;;5150055;28;20030;-72
2023/10/29 09:05:19;;;;;;;16.35;9.57;;;22.90;99.90;;;;;;5149336;28;20446;-72
2023/10/29 09:07:50;;;;;;;18.75;10.40;;;23.00;99.90;;;;;;5166855;28;20419;-72
2023/10/29 09:10:21;;;;;;;16.15;13.10;;;23.10;99.90;;;;;;5148606;28;20030;-74
2023/10/29 09:12:53;;;;;;;14.48;11.98;;;23.10;99.90;;;;;;5148446;28;20038;-74
2023/10/29 09:15:24;;;;;;;12.85;11.43;;;23.10;99.90;;;;;;5166101;28;20019;-74
2023/10/29 09:17:55;;;;;;;19.08;13.88;;;23.30;99.90;;;;;;5166112;28;20022;-74
2023/10/29 09:20:26;;;;;;;15.20;10.75;;;23.30;99.90;;;;;;5165766;28;20042;-74
2023/10/29 09:22:57;;;;;;;15.27;10.50;;;23.30;99.90;;;;;;5166200;28;20031;-72
2023/10/29 09:25:28;;;;;;;12.57;8.45;;;23.50;99.90;;;;;;5167053;28;20019;-73
2023/10/29 09:27:58;;;;;;;13.20;8.63;;;23.50;99.90;;;;;;5148104;28;20085;-74
2023/10/29 09:30:29;;;;;;;14.65;7.47;;;23.40;99.90;;;;;;5166780;28;20069;-74
2023/10/29 09:33:00;;;;;;;16.05;9.07;;;23.40;99.90;;;;;;5166717;28;20042;-72
2023/10/29 09:35:32;;;;;;;22.20;12.27;;;23.50;99.90;;;;;;5166827;28;20390;-71
2023/10/29 09:38:02;;;;;;;27.85;17.42;;;23.70;99.90;;;;;;5166767;28;20050;-73
2023/10/29 09:40:33;;;;;;;33.08;22.95;;;24.00;99.90;;;;;;5166563;28;20088;-73
2023/10/29 09:43:08;;;;;;;88.72;52.45;;;24.00;99.90;;;;;;5166782;28;20022;-72
2023/10/29 09:45:49;;;;;;;126.43;71.35;;;23.90;99.90;;;;;;5166833;28;20113;-75
2023/10/29 09:48:20;;;;;;;38.88;20.92;;;23.90;99.90;;;;;;5148965;28;20029;-73
2023/10/29 09:50:51;;;;;;;19.88;12.52;;;23.80;99.90;;;;;;5166536;28;20038;-74
2023/10/29 09:53:24;;;;;;;18.58;10.30;;;24.00;99.90;;;;;;5149281;28;20132;-75
2023/10/29 09:55:55;;;;;;;19.45;12.55;;;24.10;99.90;;;;;;5166357;28;20037;-72
2023/10/29 09:58:27;;;;;;;14.98;6.50;;;24.20;99.90;;;;;;5166245;28;20034;-75
2023/10/29 10:00:58;;;;;;;15.18;7.80;;;24.30;99.90;;;;;;5165457;28;20474;-72
2023/10/29 10:03:29;;;;;;;11.23;6.00;;;24.20;99.90;;;;;;5165850;28;20184;-72
2023/10/29 10:06:00;;;;;;;13.02;6.40;;;24.30;99.90;;;;;;5165159;28;20015;-74
2023/10/29 10:08:33;;;;;;;12.93;7.35;;;24.10;99.90;;;;;;5164848;28;20386;-72
2023/10/29 10:11:03;;;;;;;12.82;7.63;;;24.30;99.90;;;;;;5164853;28;20375;-73
2023/10/29 10:13:41;;;;;;;21.55;12.93;;;24.10;99.90;;;;;;5164834;28;20042;-74
2023/10/29 10:16:14;;;;;;;43.83;24.67;;;24.30;99.90;;;;;;5147482;28;20106;-74
2023/10/29 10:18:57;;;;;;;21.85;11.52;;;24.20;99.90;;;;;;5147512;28;20534;-74
2023/10/29 10:21:43;;;;;;;18.73;9.43;;;24.20;99.90;;;;;;5165788;28;20565;-73
2023/10/29 10:24:14;;;;;;;34.05;20.30;;;24.20;99.90;;;;;;5165973;28;20022;-72
2023/10/29 10:26:45;;;;;;;46.33;26.63;;;24.20;99.90;;;;;;5165816;28;20028;-73
2023/10/29 10:29:16;;;;;;;43.72;24.88;;;24.20;99.90;;;;;;5165660;28;20496;-75
2023/10/29 10:32:00;;;;;;;13.93;9.55;;;24.00;99.90;;;;;;5165601;28;20039;-71
2023/10/29 10:34:33;;;;;;;16.08;8.80;;;23.80;99.90;;;;;;5165799;28;20034;-74
2023/10/29 10:37:04;;;;;;;23.17;13.00;;;23.90;99.90;;;;;;5165636;28;20032;-72
2023/10/29 10:39:35;;;;;;;25.00;13.18;;;23.90;99.90;;;;;;5165468;28;20026;-73
2023/10/29 10:42:06;;;;;;;29.80;15.52;;;23.80;99.90;;;;;;5165473;28;20441;-74
2023/10/29 10:44:42;;;;;;;17.70;8.60;;;23.80;99.90;;;;;;5166000;28;20022;-73
2023/10/29 10:47:13;;;;;;;14.20;7.30;;;23.60;99.90;;;;;;5165620;28;20057;-72
2023/10/29 10:49:45;;;;;;;22.38;12.93;;;23.60;99.90;;;;;;5165469;28;20065;-71
2023/10/29 10:52:17;;;;;;;16.15;8.13;;;23.60;99.90;;;;;;5165465;28;20509;-71
2023/10/29 10:54:49;;;;;;;18.92;8.52;;;23.60;99.90;;;;;;5165485;28;20030;-72
2023/10/29 10:57:21;;;;;;;27.90;14.80;;;23.70;99.90;;;;;;5164694;28;20048;-74
2023/10/29 10:59:59;;;;;;;16.38;7.97;;;23.80;99.90;;;;;;5165103;28;20093;-74
2023/10/29 11:02:31;;;;;;;15.98;7.07;;;23.80;99.90;;;;;;5164351;28;20018;-72
2023/10/29 11:05:04;;;;;;;15.23;7.18;;;24.00;99.90;;;;;;5164349;28;20364;-74
2023/10/29 11:07:37;;;;;;;13.48;6.57;;;24.20;99.90;;;;;;5164093;28;20026;-74
2023/10/29 11:10:11;;;;;;;16.25;8.50;;;24.20;99.90;;;;;;5163805;28;20022;-73
2023/10/29 11:12:42;;;;;;;13.50;8.13;;;24.20;99.90;;;;;;5163655;28;20045;-74
2023/10/29 11:15:22;;;;;;;14.63;8.65;;;24.00;99.90;;;;;;5164276;28;20023;-73
2023/10/29 11:17:57;;;;;;;12.38;7.18;;;24.20;99.90;;;;;;5165068;28;20470;-74
2023/10/29 11:20:46;;;;;;;11.95;7.47;;;24.20;99.90;;;;;;5164731;28;20050;-74
2023/10/29 11:23:25;;;;;;;16.00;9.00;;;24.10;99.90;;;;;;5164868;28;20432;-74
2023/10/29 11:26:22;;;;;;;19.65;9.10;;;24.30;99.90;;;;;;5164823;28;20021;-74
2023/10/29 11:28:54;;;;;;;15.25;7.25;;;24.50;99.90;;;;;;5164454;28;20552;-73
2023/10/29 11:31:25;;;;;;;15.13;8.23;;;24.70;99.90;;;;;;5147296;28;20031;-73
2023/10/29 11:33:56;;;;;;;22.45;11.88;;;24.80;99.90;;;;;;5164754;28;20053;-74
2023/10/29 11:36:38;;;;;;;22.27;10.52;;;24.90;99.90;;;;;;5164584;28;20027;-73
2023/10/29 11:39:14;;;;;;;18.63;10.35;;;24.50;99.90;;;;;;5164541;28;20386;-72
2023/10/29 11:41:46;;;;;;;14.48;10.68;;;24.60;99.90;;;;;;5164329;28;20022;-73
2023/10/29 11:44:25;;;;;;;16.05;10.27;;;24.60;99.90;;;;;;5164368;28;20045;-74
2023/10/29 11:46:56;;;;;;;12.57;11.07;;;24.30;99.90;;;;;;5164526;28;20022;-72
2023/10/29 11:49:28;;;;;;;14.80;9.02;;;24.50;99.90;;;;;;5163631;28;20161;-71
2023/10/29 11:52:03;;;;;;;15.15;10.48;;;24.30;99.90;;;;;;5163493;28;20058;-74
2023/10/29 11:54:37;;;;;;;11.95;9.73;;;24.50;99.90;;;;;;5146485;28;20034;-73
2023/10/29 11:57:08;;;;;;;13.95;9.40;;;24.30;99.90;;;;;;5163058;28;20085;-75
2023/10/29 11:59:55;;;;;;;11.13;9.90;;;24.30;99.90;;;;;;5162945;28;20168;-73
2023/10/29 12:02:26;;;;;;;14.35;10.25;;;24.10;99.90;;;;;;5163140;28;20124;-74
2023/10/29 12:04:57;;;;;;;14.48;10.20;;;24.00;99.90;;;;;;5163272;28;20471;-74
2023/10/29 12:07:29;;;;;;;11.52;9.35;;;23.90;99.90;;;;;;5145658;28;20058;-74
2023/10/29 12:10:06;;;;;;;14.15;9.35;;;23.90;99.90;;;;;;5163331;28;20026;-74
2023/10/29 12:12:37;;;;;;;13.90;9.98;;;23.90;99.90;;;;;;5164517;28;20490;-72
2023/10/29 12:15:13;;;;;;;18.48;9.05;;;23.70;99.90;;;;;;5164259;28;20026;-74
2023/10/29 12:17:45;;;;;;;11.15;8.27;;;23.80;99.90;;;;;;5164235;28;20098;-71
2023/10/29 12:20:25;;;;;;;12.65;8.75;;;23.70;99.90;;;;;;5164231;28;20050;-74
2023/10/29 12:22:57;;;;;;;15.15;8.50;;;23.80;99.90;;;;;;5164192;28;20070;-74
2023/10/29 12:25:29;;;;;;;14.52;9.35;;;23.80;99.90;;;;;;5146456;28;20030;-74
2023/10/29 12:28:00;;;;;;;17.73;10.00;;;24.00;99.90;;;;;;5163958;28;20122;-71
2023/10/29 12:30:40;;;;;;;16.65;10.57;;;23.90;99.90;;;;;;5146460;28;20034;-74
2023/10/29 12:33:25;;;;;;;14.38;10.02;;;23.80;99.90;;;;;;5163773;28;20125;-73
2023/10/29 12:35:59;;;;;;;14.70;9.45;;;24.00;99.90;;;;;;5146880;28;20030;-74
2023/10/29 12:38:30;;;;;;;15.40;8.82;;;24.10;99.90;;;;;;5146417;28;20498;-72
2023/10/29 12:41:14;;;;;;;15.15;7.93;;;24.00;99.90;;;;;;5163517;28;20113;-73
2023/10/29 12:43:51;;;;;;;16.45;10.27;;;24.10;99.90;;;;;;5163872;28;20019;-73
2023/10/29 12:46:24;;;;;;;16.92;9.98;;;24.40;99.90;;;;;;5163775;28;20023;-72
2023/10/29 12:48:56;;;;;;;14.68;10.20;;;24.40;99.90;;;;;;5162953;28;20061;-72
2023/10/29 12:51:33;;;;;;;17.65;10.27;;;24.00;99.90;;;;;;5163057;28;20038;-75
2023/10/29 12:54:20;;;;;;;18.60;9.05;;;23.90;99.90;;;;;;5162614;28;20023;-74
2023/10/29 12:57:01;;;;;;;13.07;7.35;;;23.70;99.90;;;;;;5162799;28;20057;-73
2023/10/29 12:59:33;;;;;;;11.02;7.68;;;23.60;99.90;;;;;;5162679;28;20049;-75